createdAt,value
2017-08-18T00:01:10.361Z,84.40
2017-08-18T00:03:38.656Z,84.10
2017-08-18T00:06:06.594Z,84.10
2017-08-18T00:08:34.100Z,84.30
2017-08-18T00:11:02.087Z,84.70
2017-08-18T00:13:33.635Z,84.80
2017-08-18T00:16:01.152Z,84.70
2017-08-18T00:18:28.736Z,84.70
2017-08-18T00:20:57.071Z,85.10
2017-08-18T00:23:24.677Z,85.40
2017-08-18T00:25:55.330Z,85.60
2017-08-18T00:28:22.838Z,85.60
2017-08-18T00:30:50.376Z,85.50
2017-08-18T00:33:18.194Z,85.50
2017-08-18T00:35:46.607Z,85.50
2017-08-18T00:38:14.115Z,85.20
2017-08-18T00:40:41.676Z,84.40
2017-08-18T00:43:09.192Z,83.30
2017-08-18T00:45:37.512Z,83.00
2017-08-18T00:48:05.700Z,83.10
2017-08-18T00:50:33.215Z,83.50
2017-08-18T00:53:01.561Z,84.10
2017-08-18T00:55:29.856Z,84.10
2017-08-18T00:57:57.367Z,84.20
2017-08-18T01:00:24.880Z,84.50
2017-08-18T01:02:53.208Z,85.30
2017-08-18T01:05:20.713Z,84.60
2017-08-18T01:07:48.270Z,85.20
2017-08-18T01:10:15.811Z,85.70
2017-08-18T01:12:48.055Z,86.60
2017-08-18T01:15:15.700Z,86.60
2017-08-18T01:17:43.215Z,86.90
2017-08-18T01:20:10.724Z,87.20
2017-08-18T01:22:38.862Z,87.20
2017-08-18T01:25:06.443Z,87.10
2017-08-18T01:27:33.951Z,87.20
2017-08-18T01:30:01.709Z,87.20
2017-08-18T01:32:29.379Z,87.50
2017-08-18T01:34:57.803Z,87.40
2017-08-18T01:37:25.394Z,87.50
2017-08-18T01:39:52.910Z,87.20
2017-08-18T01:42:20.418Z,87.50
2017-08-18T01:44:47.957Z,87.70
2017-08-18T01:47:15.592Z,87.80
2017-08-18T01:49:43.100Z,88.10
2017-08-18T01:52:12.176Z,88.50
2017-08-18T01:54:39.685Z,88.50
2017-08-18T01:57:10.179Z,89.00
2017-08-18T01:59:43.304Z,89.70
2017-08-18T02:02:10.860Z,90.00
2017-08-18T02:04:38.373Z,90.60
2017-08-18T02:07:06.850Z,90.40
2017-08-18T02:09:34.771Z,90.20
2017-08-18T02:12:02.299Z,90.20
2017-08-18T02:14:29.814Z,90.10
2017-08-18T02:17:01.786Z,90.10
2017-08-18T02:19:29.295Z,90.10
2017-08-18T02:21:57.023Z,89.80
2017-08-18T02:24:25.028Z,89.50
2017-08-18T02:26:52.541Z,89.40
2017-08-18T02:29:20.916Z,89.00
2017-08-18T02:31:48.589Z,90.00
2017-08-18T02:34:16.135Z,90.10
2017-08-18T02:36:43.644Z,89.80
2017-08-18T02:39:11.772Z,89.70
2017-08-18T02:41:41.184Z,90.00
2017-08-18T02:44:08.848Z,90.10
2017-08-18T02:46:36.464Z,90.00
2017-08-18T02:49:04.800Z,90.00
2017-08-18T02:51:32.313Z,89.90
2017-08-18T02:53:59.823Z,90.00
2017-08-18T02:56:27.372Z,90.00
2017-08-18T02:58:59.395Z,90.10
2017-08-18T03:01:27.671Z,90.00
2017-08-18T03:03:55.183Z,90.00
2017-08-18T03:06:22.780Z,89.90
2017-08-18T03:08:50.301Z,89.60
2017-08-18T03:11:17.810Z,90.00
2017-08-18T03:13:45.327Z,90.10
2017-08-18T03:16:14.255Z,90.30
2017-08-18T03:18:42.037Z,90.30
2017-08-18T03:21:09.815Z,90.30
2017-08-18T03:23:38.050Z,90.50
2017-08-18T03:26:05.560Z,90.60
2017-08-18T03:28:33.092Z,90.60
2017-08-18T03:31:00.610Z,90.60
2017-08-18T03:33:28.120Z,90.60
2017-08-18T03:35:55.666Z,90.60
2017-08-18T03:38:23.183Z,90.70
2017-08-18T03:40:50.799Z,90.80
2017-08-18T03:43:18.379Z,91.20
2017-08-18T03:45:50.526Z,91.00
2017-08-18T03:48:18.063Z,90.90
2017-08-18T03:50:46.362Z,90.80
2017-08-18T03:53:13.975Z,90.80
2017-08-18T03:55:42.214Z,90.80
2017-08-18T03:58:11.498Z,90.80
2017-08-18T04:00:39.080Z,90.90
2017-08-18T04:03:06.595Z,90.80
2017-08-18T04:05:34.148Z,90.80
2017-08-18T04:08:01.683Z,91.00
2017-08-18T04:10:29.283Z,90.90
2017-08-18T04:12:56.803Z,90.90
2017-08-18T04:15:27.984Z,91.00
2017-08-18T04:17:55.763Z,91.10
2017-08-18T04:20:23.819Z,91.10
2017-08-18T04:22:51.330Z,91.00
2017-08-18T04:25:19.497Z,91.20
2017-08-18T04:27:47.117Z,91.40
2017-08-18T04:30:14.672Z,91.40
2017-08-18T04:32:42.190Z,91.10
2017-08-18T04:35:09.717Z,90.90
2017-08-18T04:37:37.240Z,90.90
2017-08-18T04:40:04.783Z,90.90
2017-08-18T04:42:33.987Z,90.60
2017-08-18T04:45:05.027Z,90.60
2017-08-18T04:47:32.543Z,90.40
2017-08-18T04:50:00.063Z,90.20
2017-08-18T04:52:28.561Z,90.00
2017-08-18T04:54:56.077Z,90.00
2017-08-18T04:57:23.595Z,89.80
2017-08-18T04:59:51.103Z,89.30
2017-08-18T05:02:19.348Z,87.80
2017-08-18T05:04:47.580Z,85.50
2017-08-18T05:07:15.115Z,83.20
2017-08-18T05:09:42.666Z,81.70
2017-08-18T05:12:10.175Z,80.10
2017-08-18T05:14:37.818Z,78.40
2017-08-18T05:17:05.419Z,76.40
2017-08-18T05:19:32.988Z,74.30
2017-08-18T05:22:01.228Z,72.20
2017-08-18T05:24:28.788Z,70.30
2017-08-18T05:26:56.319Z,68.90
2017-08-18T05:29:23.841Z,67.90
2017-08-18T05:31:51.352Z,67.30
2017-08-18T05:34:18.863Z,66.20
2017-08-18T05:36:46.591Z,64.50
2017-08-18T05:39:15.081Z,63.40
2017-08-18T05:41:43.091Z,62.30
2017-08-18T05:44:10.666Z,61.30
2017-08-18T05:46:38.209Z,60.30
2017-08-18T05:49:05.720Z,59.30
2017-08-18T05:51:34.088Z,58.80
2017-08-18T05:54:01.621Z,59.20
2017-08-18T05:56:29.182Z,58.50
2017-08-18T05:58:56.719Z,58.10
2017-08-18T06:01:24.243Z,57.00
2017-08-18T06:03:51.768Z,56.70
2017-08-18T06:06:19.355Z,57.00
2017-08-18T06:08:47.548Z,57.60
2017-08-18T06:11:15.395Z,58.60
2017-08-18T06:13:43.854Z,63.70
2017-08-18T06:16:11.393Z,63.60
2017-08-18T06:18:38.916Z,65.90
2017-08-18T06:21:07.125Z,67.30
2017-08-18T06:23:34.809Z,68.30
2017-08-18T06:26:02.344Z,69.70
2017-08-18T06:28:30.007Z,70.40
2017-08-18T06:30:57.559Z,70.50
2017-08-18T06:33:25.071Z,72.10
2017-08-18T06:35:53.271Z,71.00
2017-08-18T06:38:20.823Z,70.20
2017-08-18T06:40:48.399Z,69.70
2017-08-18T06:43:16.288Z,68.40
2017-08-18T06:45:43.799Z,67.70
2017-08-18T06:48:15.327Z,66.60
2017-08-18T06:50:42.892Z,65.30
2017-08-18T06:53:10.423Z,64.70
2017-08-18T06:55:37.932Z,64.00
2017-08-18T06:58:05.469Z,64.30
2017-08-18T07:00:33.029Z,63.20
2017-08-18T07:03:00.543Z,63.30
2017-08-18T07:05:28.791Z,62.90
2017-08-18T07:07:56.330Z,63.20
2017-08-18T07:10:23.840Z,63.10
2017-08-18T07:12:51.621Z,61.60
2017-08-18T07:15:19.386Z,62.00
2017-08-18T07:17:50.535Z,61.70
2017-08-18T07:20:22.052Z,61.20
2017-08-18T07:22:49.570Z,61.00
2017-08-18T07:25:17.067Z,60.80
2017-08-18T07:27:44.611Z,61.00
2017-08-18T07:30:13.128Z,60.50
2017-08-18T07:32:40.638Z,60.40
2017-08-18T07:35:08.177Z,60.90
2017-08-18T07:37:35.706Z,62.30
2017-08-18T07:40:03.284Z,63.50
2017-08-18T07:42:30.928Z,62.70
2017-08-18T07:44:58.464Z,63.50
2017-08-18T07:47:26.906Z,63.50
2017-08-18T07:49:54.452Z,63.30
2017-08-18T07:52:21.992Z,63.30
2017-08-18T07:54:49.748Z,62.50
2017-08-18T07:57:17.515Z,62.10
2017-08-18T07:59:45.047Z,61.90
2017-08-18T08:02:13.362Z,62.60
2017-08-18T08:04:40.899Z,62.60
2017-08-18T08:07:08.451Z,62.00
2017-08-18T08:09:35.955Z,61.60
2017-08-18T08:12:03.815Z,61.20
2017-08-18T08:14:31.343Z,61.30
2017-08-18T08:16:59.769Z,60.50
2017-08-18T08:19:27.353Z,60.00
2017-08-18T08:21:55.075Z,59.90
2017-08-18T08:24:22.655Z,59.70
2017-08-18T08:26:50.215Z,59.10
2017-08-18T08:29:18.704Z,57.60
2017-08-18T08:31:46.208Z,56.60
2017-08-18T08:34:13.716Z,56.30
2017-08-18T08:36:41.220Z,55.20
2017-08-18T08:39:09.803Z,54.70
2017-08-18T08:41:38.307Z,54.10
2017-08-18T08:44:05.967Z,55.40
2017-08-18T08:46:33.503Z,54.70
2017-08-18T08:49:01.011Z,54.50
2017-08-18T08:51:28.675Z,55.30
2017-08-18T08:53:56.238Z,55.20
2017-08-18T08:56:23.799Z,54.70
2017-08-18T08:58:51.655Z,54.70
2017-08-18T09:01:19.162Z,54.60
2017-08-18T09:03:46.795Z,53.70
2017-08-18T09:06:14.308Z,54.10
2017-08-18T09:08:41.812Z,54.00
2017-08-18T09:11:09.427Z,53.70
2017-08-18T09:13:37.240Z,53.30
2017-08-18T09:16:05.160Z,53.20
2017-08-18T09:18:33.099Z,54.00
2017-08-18T09:21:00.607Z,53.00
2017-08-18T09:23:28.285Z,54.70
2017-08-18T09:25:56.100Z,53.30
2017-08-18T09:28:24.779Z,51.50
2017-08-18T09:30:52.295Z,52.00
2017-08-18T09:33:19.805Z,52.80
2017-08-18T09:35:50.552Z,52.10
2017-08-18T09:38:18.288Z,52.60
2017-08-18T09:40:45.802Z,53.20
2017-08-18T09:43:13.879Z,51.70
2017-08-18T09:45:41.387Z,50.70
2017-08-18T09:48:20.807Z,50.70
2017-08-18T09:51:00.964Z,47.60
2017-08-18T09:56:42.355Z,47.50
2017-08-18T09:59:10.788Z,47.70
2017-08-18T10:01:38.326Z,46.80
2017-08-18T10:04:05.843Z,46.50
2017-08-18T10:06:34.314Z,47.70
2017-08-18T10:09:01.820Z,47.90
2017-08-18T10:11:29.369Z,48.40
2017-08-18T10:13:56.872Z,48.20
2017-08-18T10:16:24.525Z,49.00
2017-08-18T10:18:52.277Z,48.80
2017-08-18T10:21:19.783Z,49.00
2017-08-18T10:23:47.761Z,49.50
2017-08-18T10:26:15.695Z,48.20
2017-08-18T10:28:43.200Z,47.80
2017-08-18T10:31:10.736Z,44.80
2017-08-18T10:33:38.354Z,45.50
2017-08-18T10:36:06.646Z,44.10
2017-08-18T10:38:34.319Z,43.60
2017-08-18T10:41:01.843Z,44.30
2017-08-18T10:43:29.347Z,45.60
2017-08-18T10:45:56.863Z,46.00
2017-08-18T10:48:24.368Z,45.00
2017-08-18T10:50:51.951Z,45.50
2017-08-18T10:53:19.451Z,45.50
2017-08-18T10:55:46.946Z,46.90
2017-08-18T10:58:14.979Z,45.30
2017-08-18T11:00:42.487Z,45.00
2017-08-18T11:03:09.996Z,44.90
2017-08-18T11:05:37.496Z,45.70
2017-08-18T11:08:05.104Z,44.30
2017-08-18T11:10:32.856Z,44.60
2017-08-18T11:13:00.362Z,44.90
2017-08-18T11:15:28.307Z,44.10
2017-08-18T11:17:55.821Z,45.00
2017-08-18T11:20:23.363Z,45.00
2017-08-18T11:22:51.700Z,43.90
2017-08-18T11:25:19.411Z,43.80
2017-08-18T11:27:47.766Z,44.10
2017-08-18T11:30:15.275Z,43.70
2017-08-18T11:32:42.792Z,42.30
2017-08-18T11:35:10.349Z,43.10
2017-08-18T11:37:37.851Z,44.70
2017-08-18T11:40:05.356Z,42.30
2017-08-18T11:42:32.872Z,42.60
2017-08-18T11:45:01.076Z,42.70
2017-08-18T11:47:28.689Z,42.80
2017-08-18T11:49:56.479Z,43.40
2017-08-18T11:52:23.983Z,44.00
2017-08-18T11:54:51.523Z,44.90
2017-08-18T11:57:19.024Z,45.20
2017-08-18T11:59:46.574Z,45.00
2017-08-18T12:02:15.154Z,45.00
2017-08-18T12:04:42.728Z,44.60
2017-08-18T12:07:14.811Z,43.20
2017-08-18T12:09:42.589Z,43.10
2017-08-18T12:12:10.146Z,43.20
2017-08-18T12:14:37.712Z,44.20
2017-08-18T12:17:05.231Z,41.50
2017-08-18T12:19:32.791Z,42.10
2017-08-18T12:22:01.072Z,42.90
2017-08-18T12:24:33.469Z,42.80
2017-08-18T12:27:01.147Z,42.80
2017-08-18T12:29:29.459Z,42.00
2017-08-18T12:31:57.009Z,42.80
2017-08-18T12:34:24.555Z,42.70
2017-08-18T12:36:52.090Z,43.60
2017-08-18T12:39:19.603Z,43.40
2017-08-18T12:41:47.187Z,43.50
2017-08-18T12:44:14.710Z,42.70
2017-08-18T12:46:42.229Z,42.80
2017-08-18T12:49:09.832Z,44.00
2017-08-18T12:51:37.344Z,43.60
2017-08-18T12:54:09.097Z,44.10
2017-08-18T12:56:36.594Z,43.80
2017-08-18T12:59:04.157Z,43.10
2017-08-18T13:01:32.667Z,43.10
2017-08-18T13:04:00.173Z,42.00
2017-08-18T13:06:27.685Z,42.20
2017-08-18T13:08:55.995Z,42.30
2017-08-18T13:11:23.599Z,42.20
2017-08-18T13:13:52.413Z,41.60
2017-08-18T13:16:19.917Z,41.60
2017-08-18T13:18:49.202Z,42.10
2017-08-18T13:21:17.248Z,42.20
2017-08-18T13:23:44.752Z,41.80
2017-08-18T13:26:12.264Z,42.70
2017-08-18T13:28:41.246Z,41.80
2017-08-18T13:31:09.511Z,40.40
2017-08-18T13:33:37.925Z,39.80
2017-08-18T13:36:06.592Z,41.10
2017-08-18T13:38:34.950Z,41.00
2017-08-18T13:41:02.766Z,40.20
2017-08-18T13:43:30.592Z,41.60
2017-08-18T13:45:58.913Z,39.20
2017-08-18T13:48:26.477Z,39.20
2017-08-18T13:50:55.063Z,38.10
2017-08-18T13:53:22.572Z,39.00
2017-08-18T13:55:50.847Z,39.10
2017-08-18T13:58:18.648Z,38.90
2017-08-18T14:00:46.256Z,38.60
2017-08-18T14:03:14.735Z,39.30
2017-08-18T14:05:42.818Z,40.00
2017-08-18T14:08:10.332Z,38.90
2017-08-18T14:10:38.980Z,38.80
2017-08-18T14:13:06.537Z,39.20
2017-08-18T14:15:34.047Z,38.80
2017-08-18T14:18:01.684Z,38.70
2017-08-18T14:20:29.189Z,38.20
2017-08-18T14:23:02.260Z,39.90
2017-08-18T14:25:46.891Z,40.40
2017-08-18T14:28:14.396Z,41.30
2017-08-18T14:30:41.912Z,40.80
2017-08-18T14:33:09.447Z,40.70
2017-08-18T14:35:37.231Z,40.00
2017-08-18T14:38:04.775Z,40.10
2017-08-18T14:40:32.299Z,40.60
2017-08-18T14:43:03.303Z,39.80
2017-08-18T14:45:30.811Z,40.70
2017-08-18T14:47:59.079Z,40.20
2017-08-18T14:50:26.843Z,40.20
2017-08-18T14:52:55.177Z,40.80
2017-08-18T14:55:22.684Z,40.20
2017-08-18T14:57:50.199Z,41.70
2017-08-18T15:00:19.032Z,41.60
2017-08-18T15:02:46.619Z,42.70
2017-08-18T15:05:14.388Z,43.20
2017-08-18T15:07:41.902Z,44.40
2017-08-18T15:10:09.411Z,44.80
2017-08-18T15:12:36.919Z,46.70
2017-08-18T15:15:04.429Z,46.50
2017-08-18T15:17:32.004Z,47.30
2017-08-18T15:19:59.576Z,47.30
2017-08-18T15:22:28.234Z,47.50
2017-08-18T15:24:55.785Z,47.70
2017-08-18T15:27:23.324Z,47.30
2017-08-18T15:29:50.912Z,47.60
2017-08-18T15:32:18.511Z,48.30
2017-08-18T15:34:47.259Z,49.10
2017-08-18T15:37:14.759Z,49.40
2017-08-18T15:39:42.287Z,49.60
2017-08-18T15:42:13.618Z,49.90
2017-08-18T15:44:41.744Z,50.40
2017-08-18T15:47:09.405Z,51.90
2017-08-18T15:49:37.225Z,55.00
2017-08-18T15:52:04.754Z,57.80
2017-08-18T15:54:32.287Z,58.10
2017-08-18T15:57:03.490Z,57.80
2017-08-18T15:59:31.945Z,63.10
2017-08-18T16:01:59.498Z,63.20
2017-08-18T16:04:27.338Z,68.10
2017-08-18T16:06:55.789Z,66.60
2017-08-18T16:09:23.349Z,70.50
2017-08-18T16:11:50.903Z,74.10
2017-08-18T16:14:22.852Z,77.30
2017-08-18T16:16:51.492Z,76.80
2017-08-18T16:19:19.047Z,76.80
2017-08-18T16:21:46.664Z,79.00
2017-08-18T16:24:14.211Z,80.70
2017-08-18T16:26:45.739Z,81.30
2017-08-18T16:29:13.279Z,81.00
2017-08-18T16:31:40.836Z,83.10
2017-08-18T16:34:08.355Z,80.10
2017-08-18T16:36:36.379Z,83.20
2017-08-18T16:39:03.881Z,98.00
2017-08-18T16:41:31.395Z,99.90
2017-08-18T16:43:59.515Z,99.90
2017-08-18T16:46:27.036Z,99.90
2017-08-18T16:48:54.599Z,99.90
2017-08-18T16:51:22.115Z,99.90
2017-08-18T16:53:49.663Z,99.90
2017-08-18T16:56:18.331Z,99.90
2017-08-18T16:58:45.837Z,99.90
2017-08-18T17:01:13.400Z,99.90
2017-08-18T17:03:40.951Z,99.90
2017-08-18T17:06:08.671Z,99.90
2017-08-18T17:08:36.180Z,99.90
2017-08-18T17:11:04.511Z,99.90
2017-08-18T17:13:32.985Z,99.90
2017-08-18T17:16:00.494Z,99.90
2017-08-18T17:18:28.151Z,99.90
2017-08-18T17:20:56.582Z,99.90
2017-08-18T17:23:24.089Z,99.40
2017-08-18T17:25:51.666Z,99.40
2017-08-18T17:28:23.871Z,99.00
2017-08-18T17:30:51.636Z,99.10
2017-08-18T17:33:19.131Z,99.30
2017-08-18T17:35:46.654Z,99.30
2017-08-18T17:38:14.159Z,99.30
2017-08-18T17:40:41.990Z,98.60
2017-08-18T17:43:16.743Z,98.40
2017-08-18T17:45:44.362Z,98.40
2017-08-18T17:48:12.055Z,98.40
2017-08-18T17:50:39.559Z,97.80
2017-08-18T17:53:07.151Z,97.30
2017-08-18T17:55:34.701Z,97.20
2017-08-18T17:58:05.232Z,97.00
2017-08-18T18:00:33.072Z,97.00
2017-08-18T18:03:00.691Z,95.80
2017-08-18T18:05:28.197Z,95.10
2017-08-18T18:07:55.769Z,94.90
2017-08-18T18:10:23.455Z,94.10
2017-08-18T18:12:51.144Z,94.10
2017-08-18T18:15:18.658Z,93.90
2017-08-18T18:17:46.235Z,93.90
2017-08-18T18:20:14.199Z,93.80
2017-08-18T18:22:41.997Z,93.70
2017-08-18T18:25:10.324Z,93.70
2017-08-18T18:27:38.822Z,93.70
2017-08-18T18:30:06.343Z,93.60
2017-08-18T18:32:34.236Z,93.50
2017-08-18T18:35:01.798Z,92.80
2017-08-18T18:37:29.311Z,92.60
2017-08-18T18:39:56.871Z,91.70
2017-08-18T18:42:24.420Z,91.30
2017-08-18T18:44:52.463Z,90.80
2017-08-18T18:47:20.219Z,90.80
2017-08-18T18:49:47.727Z,91.50
2017-08-18T18:52:15.240Z,90.90
2017-08-18T18:54:42.840Z,90.60
2017-08-18T18:57:10.422Z,90.40
2017-08-18T18:59:42.046Z,90.70
2017-08-18T19:02:09.591Z,90.60
2017-08-18T19:04:37.387Z,90.80
2017-08-18T19:07:04.892Z,91.50
2017-08-18T19:09:32.401Z,91.50
2017-08-18T19:12:00.831Z,93.60
2017-08-18T19:14:32.399Z,96.10
2017-08-18T19:16:59.910Z,98.30
2017-08-18T19:19:27.428Z,99.10
2017-08-18T19:21:56.827Z,98.50
2017-08-18T19:24:24.400Z,98.90
2017-08-18T19:26:51.956Z,99.00
2017-08-18T19:29:20.392Z,99.20
2017-08-18T19:31:47.931Z,99.30
2017-08-18T19:34:15.486Z,99.80
2017-08-18T19:36:42.992Z,99.90
2017-08-18T19:39:10.871Z,99.90
2017-08-18T19:41:38.707Z,99.90
2017-08-18T19:44:06.243Z,99.90
2017-08-18T19:46:34.223Z,99.90
2017-08-18T19:49:05.061Z,99.90
2017-08-18T19:51:32.672Z,99.90
2017-08-18T19:54:00.183Z,99.90
2017-08-18T19:56:27.704Z,99.90
2017-08-18T19:58:55.210Z,99.90
2017-08-18T20:01:23.496Z,99.90
2017-08-18T20:03:51.047Z,99.90
2017-08-18T20:06:18.799Z,99.90
2017-08-18T20:08:46.531Z,99.90
2017-08-18T20:11:14.083Z,99.90
2017-08-18T20:13:43.320Z,99.90
2017-08-18T20:16:10.840Z,99.90
2017-08-18T20:18:39.375Z,99.80
2017-08-18T20:21:08.416Z,99.20
2017-08-18T20:23:35.987Z,99.20
2017-08-18T20:26:03.492Z,98.90
2017-08-18T20:28:31.003Z,98.60
2017-08-18T20:31:02.285Z,98.20
2017-08-18T20:33:29.841Z,97.80
2017-08-18T20:35:57.345Z,97.80
2017-08-18T20:38:24.960Z,97.70
2017-08-18T20:40:52.496Z,97.60
2017-08-18T20:43:20.055Z,97.60
2017-08-18T20:45:51.296Z,97.10
2017-08-18T20:48:18.904Z,97.00
2017-08-18T20:50:46.423Z,96.90
2017-08-18T20:53:13.924Z,96.70
2017-08-18T20:55:41.420Z,96.60
2017-08-18T20:58:08.975Z,96.40
2017-08-18T21:00:37.412Z,96.20
2017-08-18T21:03:09.308Z,96.20
2017-08-18T21:05:36.813Z,96.10
2017-08-18T21:08:04.324Z,96.20
2017-08-18T21:10:32.651Z,95.90
2017-08-18T21:13:00.430Z,95.90
2017-08-18T21:15:27.960Z,95.40
2017-08-18T21:17:59.236Z,95.40
2017-08-18T21:20:26.777Z,94.90
2017-08-18T21:22:54.283Z,94.90
2017-08-18T21:25:21.832Z,94.70
2017-08-18T21:27:50.065Z,94.40
2017-08-18T21:30:17.581Z,94.10
2017-08-18T21:32:45.531Z,94.10
2017-08-18T21:35:18.005Z,93.70
2017-08-18T21:37:45.515Z,94.20
2017-08-18T21:40:13.444Z,94.60
2017-08-18T21:42:41.275Z,94.70
2017-08-18T21:45:09.219Z,94.90
2017-08-18T21:47:39.681Z,94.80
2017-08-18T21:50:07.192Z,94.60
2017-08-18T21:52:34.747Z,94.30
2017-08-18T21:55:02.274Z,94.10
2017-08-18T21:57:29.921Z,94.40
2017-08-18T21:59:57.440Z,93.80
2017-08-18T22:02:24.956Z,93.80
2017-08-18T22:04:58.171Z,93.70
2017-08-18T22:07:25.678Z,93.70
2017-08-18T22:09:54.012Z,93.80
2017-08-18T22:12:21.520Z,93.90
2017-08-18T22:14:49.027Z,93.90
2017-08-18T22:17:20.406Z,94.20
2017-08-18T22:19:48.518Z,94.20
2017-08-18T22:22:16.074Z,94.80
2017-08-18T22:24:43.575Z,94.40
2017-08-18T22:27:11.157Z,94.30
2017-08-18T22:29:38.723Z,94.30
2017-08-18T22:32:06.238Z,94.30
2017-08-18T22:34:33.743Z,94.60
2017-08-18T22:37:02.068Z,94.90
2017-08-18T22:39:29.576Z,94.70
2017-08-18T22:41:57.126Z,94.60
2017-08-18T22:44:24.630Z,94.90
2017-08-18T22:46:52.336Z,95.20
2017-08-18T22:49:19.843Z,95.40
2017-08-18T22:51:47.383Z,95.20
2017-08-18T22:54:15.888Z,94.70
2017-08-18T22:56:43.629Z,94.60
2017-08-18T22:59:11.147Z,94.30
2017-08-18T23:01:38.668Z,94.50
2017-08-18T23:04:10.498Z,94.40
2017-08-18T23:06:38.092Z,94.90
2017-08-18T23:09:05.761Z,94.70
2017-08-18T23:11:33.391Z,94.70
2017-08-18T23:14:01.383Z,94.70
2017-08-18T23:16:29.847Z,94.50
2017-08-18T23:19:02.230Z,94.70
2017-08-18T23:21:30.171Z,94.90
2017-08-18T23:23:57.723Z,95.10
2017-08-18T23:26:25.242Z,95.10
2017-08-18T23:28:52.782Z,94.90
2017-08-18T23:31:20.343Z,95.00
2017-08-18T23:33:47.856Z,95.30
2017-08-18T23:36:15.388Z,95.40
2017-08-18T23:38:42.936Z,95.80
2017-08-18T23:41:10.788Z,96.00
2017-08-18T23:43:38.667Z,95.90
2017-08-18T23:46:06.183Z,96.10
2017-08-18T23:48:33.719Z,96.20
2017-08-18T23:51:04.664Z,95.90
2017-08-18T23:53:32.223Z,94.80
2017-08-18T23:56:00.135Z,94.40
2017-08-18T23:58:28.007Z,94.60
